createdAt,value
2018-07-22T00:00:13.939Z,16.07
2018-07-22T00:03:12.179Z,15.07
2018-07-22T00:06:10.206Z,15.77
2018-07-22T00:09:08.106Z,16.63
2018-07-22T00:12:06.026Z,16.17
2018-07-22T00:15:04.086Z,16.83
2018-07-22T00:18:02.133Z,16.13
2018-07-22T00:21:00.107Z,15.53
2018-07-22T00:23:58.207Z,16.50
2018-07-22T00:26:56.106Z,16.43
2018-07-22T00:29:54.016Z,16.50
2018-07-22T00:32:51.975Z,14.03
2018-07-22T00:35:49.742Z,15.93
2018-07-22T00:38:47.749Z,16.10
2018-07-22T00:41:45.550Z,15.10
2018-07-22T00:44:43.286Z,15.20
2018-07-22T00:47:41.278Z,14.67
2018-07-22T00:50:38.624Z,15.50
2018-07-22T00:53:36.511Z,14.03
2018-07-22T00:56:34.682Z,14.27
2018-07-22T00:59:32.548Z,15.43
2018-07-22T01:02:30.636Z,16.57
2018-07-22T01:05:28.910Z,16.87
2018-07-22T01:08:27.006Z,17.97
2018-07-22T01:11:25.134Z,19.53
2018-07-22T01:14:23.106Z,20.13
2018-07-22T01:17:20.946Z,22.13
2018-07-22T01:20:19.763Z,20.67
2018-07-22T01:23:17.685Z,21.57
2018-07-22T01:26:15.528Z,21.47
2018-07-22T01:29:13.459Z,22.67
2018-07-22T01:32:11.260Z,21.07
2018-07-22T01:35:09.084Z,20.63
2018-07-22T01:38:07.175Z,21.30
2018-07-22T01:41:04.433Z,23.10
2018-07-22T01:44:02.269Z,20.43
2018-07-22T01:47:00.287Z,21.43
2018-07-22T01:49:58.146Z,20.33
2018-07-22T01:52:55.931Z,20.00
2018-07-22T01:55:53.951Z,19.00
2018-07-22T01:58:52.019Z,22.17
2018-07-22T02:01:50.028Z,23.37
2018-07-22T02:04:47.914Z,25.67
2018-07-22T02:07:45.654Z,27.10
2018-07-22T02:10:43.535Z,26.50
2018-07-22T02:13:41.412Z,25.73
2018-07-22T02:16:39.241Z,24.97
2018-07-22T02:19:37.225Z,24.47
2018-07-22T02:22:35.314Z,23.53
2018-07-22T02:25:33.391Z,24.07
2018-07-22T02:28:31.479Z,24.03
2018-07-22T02:31:30.521Z,24.67
2018-07-22T02:34:28.457Z,25.83
2018-07-22T02:37:26.413Z,25.97
2018-07-22T02:40:24.383Z,25.67
2018-07-22T02:43:22.380Z,22.57
2018-07-22T02:46:20.181Z,24.27
2018-07-22T02:49:18.098Z,23.00
2018-07-22T02:52:15.218Z,23.53
2018-07-22T02:55:13.191Z,21.90
2018-07-22T02:58:11.135Z,23.27
2018-07-22T03:01:09.158Z,24.30
2018-07-22T03:04:07.278Z,24.20
2018-07-22T03:07:05.154Z,23.03
2018-07-22T03:10:03.098Z,23.80
2018-07-22T03:13:01.182Z,24.07
2018-07-22T03:15:59.070Z,29.67
2018-07-22T03:18:57.126Z,26.60
2018-07-22T03:21:55.115Z,26.33
2018-07-22T03:24:53.164Z,26.67
2018-07-22T03:27:51.134Z,27.10
2018-07-22T03:30:49.246Z,26.10
2018-07-22T03:33:47.289Z,25.07
2018-07-22T03:36:45.391Z,24.57
2018-07-22T03:39:43.556Z,25.50
2018-07-22T03:42:41.522Z,29.17
2018-07-22T03:45:38.799Z,28.67
2018-07-22T03:48:36.926Z,28.77
2018-07-22T03:51:34.843Z,30.03
2018-07-22T03:54:32.662Z,29.80
2018-07-22T03:57:30.559Z,29.00
2018-07-22T04:00:28.907Z,28.77
2018-07-22T04:03:27.034Z,31.57
2018-07-22T04:06:24.897Z,30.97
2018-07-22T04:09:22.898Z,29.77
2018-07-22T04:12:21.061Z,30.00
2018-07-22T04:15:19.918Z,30.67
2018-07-22T04:18:18.027Z,32.50
2018-07-22T04:21:15.925Z,30.03
2018-07-22T04:24:13.855Z,33.47
2018-07-22T04:27:11.719Z,33.10
2018-07-22T04:30:09.747Z,33.27
2018-07-22T04:33:07.786Z,33.03
2018-07-22T04:36:05.766Z,31.83
2018-07-22T04:39:03.742Z,31.43
2018-07-22T04:42:01.639Z,32.23
2018-07-22T04:44:59.606Z,32.60
2018-07-22T04:47:57.706Z,31.43
2018-07-22T04:50:55.735Z,30.53
2018-07-22T04:53:53.740Z,30.03
2018-07-22T04:56:51.638Z,31.20
2018-07-22T04:59:49.603Z,30.63
2018-07-22T05:02:47.529Z,31.67
2018-07-22T05:05:45.477Z,31.77
2018-07-22T05:08:43.494Z,31.57
2018-07-22T05:11:41.673Z,30.90
2018-07-22T05:14:39.638Z,32.20
2018-07-22T05:17:37.514Z,32.37
2018-07-22T05:20:35.354Z,31.23
2018-07-22T05:23:33.339Z,29.70
2018-07-22T05:26:31.194Z,31.07
2018-07-22T05:29:29.002Z,31.20
2018-07-22T05:32:26.919Z,29.40
2018-07-22T05:35:24.549Z,27.33
2018-07-22T05:38:22.626Z,30.43
2018-07-22T05:41:21.615Z,27.83
2018-07-22T05:44:19.734Z,27.57
2018-07-22T05:47:17.698Z,28.43
2018-07-22T05:50:15.530Z,27.00
2018-07-22T05:53:13.900Z,28.23
2018-07-22T05:56:11.735Z,27.27
2018-07-22T05:59:09.703Z,28.73
2018-07-22T06:02:07.544Z,28.40
2018-07-22T06:05:05.532Z,27.40
2018-07-22T06:08:03.155Z,27.27
2018-07-22T06:11:01.061Z,26.60
2018-07-22T06:13:58.906Z,26.83
2018-07-22T06:16:56.817Z,27.93
2018-07-22T06:19:54.659Z,26.70
2018-07-22T06:22:52.852Z,25.20
2018-07-22T06:25:50.046Z,28.23
2018-07-22T06:28:47.846Z,30.70
2018-07-22T06:31:45.962Z,28.90
2018-07-22T06:34:44.118Z,29.20
2018-07-22T06:37:41.451Z,28.00
2018-07-22T06:40:39.478Z,27.40
2018-07-22T06:43:37.602Z,26.77
2018-07-22T06:46:35.710Z,23.73
2018-07-22T06:49:33.546Z,24.97
2018-07-22T06:52:31.675Z,23.33
2018-07-22T06:55:29.313Z,24.40
2018-07-22T06:58:27.503Z,25.77
2018-07-22T07:01:25.554Z,26.00
2018-07-22T07:04:23.459Z,25.80
2018-07-22T07:07:21.407Z,24.40
2018-07-22T07:10:19.406Z,25.03
2018-07-22T07:13:17.292Z,25.90
2018-07-22T07:16:15.462Z,24.67
2018-07-22T07:19:13.346Z,23.03
2018-07-22T07:22:11.330Z,24.57
2018-07-22T07:25:09.456Z,23.00
2018-07-22T07:28:07.231Z,23.13
2018-07-22T07:31:05.243Z,22.47
2018-07-22T07:34:03.327Z,22.97
2018-07-22T07:37:01.217Z,23.10
2018-07-22T07:39:59.234Z,22.27
2018-07-22T07:42:57.118Z,21.97
2018-07-22T07:45:54.286Z,22.10
2018-07-22T07:48:51.423Z,22.83
2018-07-22T07:51:49.322Z,22.15
2018-07-22T07:54:47.382Z,21.17
2018-07-22T07:57:45.239Z,21.90
2018-07-22T08:00:43.279Z,20.88
2018-07-22T08:03:41.490Z,22.17
2018-07-22T08:06:39.612Z,20.15
2018-07-22T08:09:37.675Z,19.80
2018-07-22T08:12:35.743Z,20.82
2018-07-22T08:15:33.798Z,20.47
2018-07-22T08:18:31.847Z,22.17
2018-07-22T08:21:29.851Z,22.45
2018-07-22T08:24:27.625Z,21.12
2018-07-22T08:27:25.630Z,22.13
2018-07-22T08:30:23.627Z,21.40
2018-07-22T08:33:21.647Z,20.10
2018-07-22T08:36:19.530Z,21.33
2018-07-22T08:39:19.608Z,19.52
2018-07-22T08:42:17.643Z,19.17
2018-07-22T08:45:15.495Z,18.70
2018-07-22T08:48:13.478Z,20.10
2018-07-22T08:51:11.552Z,18.82
2018-07-22T08:54:09.408Z,18.82
2018-07-22T08:57:07.100Z,18.25
2018-07-22T09:00:05.192Z,19.75
2018-07-22T09:03:03.258Z,19.75
2018-07-22T09:06:01.423Z,20.20
2018-07-22T09:08:59.318Z,19.23
2018-07-22T09:11:57.383Z,19.17
2018-07-22T09:14:55.356Z,17.95
2018-07-22T09:17:53.452Z,18.45
2018-07-22T09:20:51.498Z,16.73
2018-07-22T09:23:49.550Z,16.85
2018-07-22T09:26:47.451Z,16.82
2018-07-22T09:29:45.226Z,15.80
2018-07-22T09:32:43.099Z,15.70
2018-07-22T09:35:41.133Z,16.23
2018-07-22T09:38:38.987Z,15.60
2018-07-22T09:41:36.166Z,16.73
2018-07-22T09:44:33.850Z,16.30
2018-07-22T09:47:32.066Z,16.25
2018-07-22T09:50:30.071Z,16.32
2018-07-22T09:53:28.378Z,16.12
2018-07-22T09:56:26.490Z,16.48
2018-07-22T09:59:24.512Z,15.40
2018-07-22T10:02:22.660Z,16.12
2018-07-22T10:05:20.754Z,15.78
2018-07-22T10:08:18.716Z,15.63
2018-07-22T10:11:16.665Z,15.78
2018-07-22T10:14:14.560Z,15.63
2018-07-22T10:17:12.499Z,15.38
2018-07-22T10:20:09.671Z,12.55
2018-07-22T10:23:07.814Z,14.20
2018-07-22T10:26:05.862Z,13.30
2018-07-22T10:29:04.003Z,13.22
2018-07-22T10:32:02.242Z,14.60
2018-07-22T10:35:00.047Z,12.18
2018-07-22T10:37:58.009Z,10.98
2018-07-22T10:40:56.003Z,10.38
2018-07-22T10:43:54.242Z,12.28
2018-07-22T10:46:52.147Z,11.73
2018-07-22T10:49:50.215Z,10.13
2018-07-22T10:52:48.133Z,11.15
2018-07-22T10:55:46.302Z,10.95
2018-07-22T10:58:44.069Z,9.90
2018-07-22T11:01:42.095Z,10.38
2018-07-22T11:04:40.082Z,10.05
2018-07-22T11:07:38.147Z,9.58
2018-07-22T11:10:36.216Z,8.35
2018-07-22T11:13:34.130Z,8.43
2018-07-22T11:16:31.926Z,8.50
2018-07-22T11:19:30.131Z,8.48
2018-07-22T11:22:28.345Z,7.97
2018-07-22T11:25:26.105Z,7.45
2018-07-22T11:28:23.866Z,8.35
2018-07-22T11:31:21.856Z,7.45
2018-07-22T11:34:19.836Z,7.22
2018-07-22T11:37:17.885Z,7.42
2018-07-22T11:40:15.648Z,8.25
2018-07-22T11:43:13.644Z,7.50
2018-07-22T11:46:11.495Z,7.77
2018-07-22T11:49:09.686Z,8.05
2018-07-22T11:52:06.953Z,9.10
2018-07-22T11:55:05.168Z,8.27
2018-07-22T11:58:03.244Z,8.10
2018-07-22T12:01:00.950Z,7.47
2018-07-22T12:03:59.123Z,7.70
2018-07-22T12:06:57.131Z,8.23
2018-07-22T12:09:54.971Z,7.40
2018-07-22T12:12:52.939Z,7.23
2018-07-22T12:15:51.039Z,7.10
2018-07-22T12:18:49.186Z,7.67
2018-07-22T12:21:47.110Z,7.00
2018-07-22T12:24:45.154Z,7.03
2018-07-22T12:27:43.087Z,7.07
2018-07-22T12:30:41.030Z,7.60
2018-07-22T12:33:38.948Z,6.70
2018-07-22T12:36:37.224Z,6.57
2018-07-22T12:39:35.090Z,6.33
2018-07-22T12:42:33.037Z,6.60
2018-07-22T12:45:30.966Z,6.50
2018-07-22T12:48:29.199Z,7.40
2018-07-22T12:51:27.243Z,6.50
2018-07-22T12:54:25.191Z,6.90
2018-07-22T12:57:23.131Z,7.60
2018-07-22T13:00:20.802Z,6.90
2018-07-22T13:03:18.648Z,6.43
2018-07-22T13:06:16.751Z,7.20
2018-07-22T13:09:14.708Z,6.67
2018-07-22T13:12:12.898Z,6.40
2018-07-22T13:15:10.674Z,6.77
2018-07-22T13:18:08.741Z,5.93
2018-07-22T13:21:07.083Z,6.37
2018-07-22T13:24:05.099Z,6.20
2018-07-22T13:27:02.947Z,6.60
2018-07-22T13:30:02.083Z,6.40
2018-07-22T13:32:59.970Z,7.00
2018-07-22T13:35:58.017Z,6.30
2018-07-22T13:38:56.119Z,6.23
2018-07-22T13:41:54.128Z,6.03
2018-07-22T13:45:00.275Z,6.43
2018-07-22T13:47:58.071Z,6.53
2018-07-22T13:50:56.156Z,5.67
2018-07-22T13:53:54.138Z,6.00
2018-07-22T13:56:52.373Z,5.20
2018-07-22T13:59:50.478Z,5.57
2018-07-22T14:02:48.552Z,5.53
2018-07-22T14:05:46.455Z,5.77
2018-07-22T14:08:44.275Z,5.77
2018-07-22T14:11:42.424Z,5.23
2018-07-22T14:14:40.257Z,5.33
2018-07-22T14:17:38.334Z,5.13
2018-07-22T14:20:36.163Z,5.73
2018-07-22T14:23:34.200Z,5.23
2018-07-22T14:26:32.174Z,5.40
2018-07-22T14:29:30.197Z,5.90
2018-07-22T14:32:28.171Z,5.87
2018-07-22T14:35:26.191Z,5.57
2018-07-22T14:38:24.170Z,4.83
2018-07-22T14:41:22.223Z,5.33
2018-07-22T14:44:20.241Z,6.20
2018-07-22T14:47:18.301Z,6.33
2018-07-22T14:50:16.054Z,5.40
2018-07-22T14:53:13.807Z,6.10
2018-07-22T14:56:11.788Z,5.57
2018-07-22T14:59:09.748Z,5.23
2018-07-22T15:02:07.719Z,6.00
2018-07-22T15:05:05.797Z,8.07
2018-07-22T15:08:03.647Z,5.20
2018-07-22T15:11:01.621Z,5.33
2018-07-22T15:13:58.822Z,5.20
2018-07-22T15:16:56.922Z,5.27
2018-07-22T15:19:55.020Z,5.20
2018-07-22T15:22:53.199Z,5.37
2018-07-22T15:25:50.464Z,5.77
2018-07-22T15:28:47.834Z,4.90
2018-07-22T15:31:45.371Z,5.93
2018-07-22T15:34:43.309Z,5.40
2018-07-22T15:37:41.466Z,5.63
2018-07-22T15:40:38.538Z,5.50
2018-07-22T15:43:36.440Z,5.10
2018-07-22T15:46:34.624Z,5.83
2018-07-22T15:49:32.453Z,5.03
2018-07-22T15:52:30.371Z,4.80
2018-07-22T15:55:28.545Z,5.30
2018-07-22T15:58:26.472Z,4.90
2018-07-22T16:01:24.440Z,5.50
2018-07-22T16:04:22.428Z,4.63
2018-07-22T16:07:20.390Z,5.07
2018-07-22T16:10:18.394Z,5.27
2018-07-22T16:13:16.301Z,5.23
2018-07-22T16:16:14.342Z,5.23
2018-07-22T16:19:12.510Z,4.80
2018-07-22T16:22:10.521Z,5.27
2018-07-22T16:25:08.544Z,4.87
2018-07-22T16:28:06.436Z,4.90
2018-07-22T16:31:04.596Z,5.10
2018-07-22T16:34:02.802Z,5.10
2018-07-22T16:37:00.795Z,5.07
2018-07-22T16:39:58.500Z,5.10
2018-07-22T16:42:56.594Z,4.83
2018-07-22T16:45:54.883Z,5.20
2018-07-22T16:48:53.048Z,5.50
2018-07-22T16:51:51.285Z,4.73
2018-07-22T16:54:49.203Z,4.73
2018-07-22T16:57:47.268Z,4.63
2018-07-22T17:00:45.278Z,4.80
2018-07-22T17:03:43.031Z,4.77
2018-07-22T17:06:41.117Z,5.00
2018-07-22T17:09:38.877Z,4.77
2018-07-22T17:12:36.968Z,4.27
2018-07-22T17:15:34.942Z,4.17
2018-07-22T17:18:32.916Z,4.33
2018-07-22T17:21:30.894Z,4.20
2018-07-22T17:24:28.162Z,4.77
2018-07-22T17:27:25.973Z,4.80
2018-07-22T17:30:23.837Z,4.77
2018-07-22T17:33:22.782Z,4.73
2018-07-22T17:36:20.679Z,4.43
2018-07-22T17:39:20.673Z,4.57
2018-07-22T17:42:18.786Z,4.87
2018-07-22T17:45:16.756Z,5.53
2018-07-22T17:48:14.701Z,6.23
2018-07-22T17:51:12.820Z,4.90
2018-07-22T17:54:10.762Z,4.87
2018-07-22T17:57:08.862Z,4.80
2018-07-22T18:00:06.563Z,5.00
2018-07-22T18:03:11.734Z,4.10
2018-07-22T18:06:09.635Z,5.17
2018-07-22T18:09:07.594Z,4.73
2018-07-22T18:12:05.725Z,4.27
2018-07-22T18:15:03.760Z,4.53
2018-07-22T18:18:01.803Z,4.70
2018-07-22T18:20:59.806Z,4.30
2018-07-22T18:23:57.967Z,4.73
2018-07-22T18:26:55.965Z,4.60
2018-07-22T18:29:53.861Z,4.30
2018-07-22T18:32:52.091Z,4.70
2018-07-22T18:35:50.135Z,4.47
2018-07-22T18:38:48.386Z,4.70
2018-07-22T18:41:46.306Z,4.47
2018-07-22T18:44:44.743Z,4.70
2018-07-22T18:47:42.480Z,4.00
2018-07-22T18:50:40.613Z,4.53
2018-07-22T18:53:38.876Z,4.90
2018-07-22T18:56:36.761Z,4.17
2018-07-22T18:59:34.625Z,4.43
2018-07-22T19:02:32.491Z,4.93
2018-07-22T19:25:10.241Z,4.43
2018-07-22T19:28:08.206Z,4.60
2018-07-22T19:31:06.286Z,4.73
2018-07-22T19:34:05.077Z,4.47
2018-07-22T19:37:02.743Z,4.87
2018-07-22T19:40:00.844Z,4.73
2018-07-22T19:42:58.696Z,4.83
2018-07-22T19:45:56.667Z,4.73
2018-07-22T19:48:54.433Z,4.83
2018-07-22T19:51:52.717Z,4.60
2018-07-22T19:54:50.791Z,4.77
2018-07-22T19:57:48.663Z,4.50
2018-07-22T20:00:46.848Z,4.90
2018-07-22T20:03:44.920Z,5.33
2018-07-22T20:06:42.821Z,4.63
2018-07-22T20:09:40.764Z,5.07
2018-07-22T20:12:39.057Z,4.60
2018-07-22T20:15:37.121Z,6.80
2018-07-22T20:18:35.303Z,4.87
2018-07-22T20:21:33.379Z,5.10
2018-07-22T20:24:31.310Z,5.33
2018-07-22T20:27:29.428Z,4.93
2018-07-22T20:30:27.404Z,5.30
2018-07-22T20:33:25.387Z,5.07
2018-07-22T20:36:23.073Z,4.60
2018-07-22T20:39:23.372Z,4.73
2018-07-22T20:42:20.839Z,5.47
2018-07-22T20:45:18.778Z,5.57
2018-07-22T20:48:16.789Z,5.23
2018-07-22T20:51:14.892Z,5.83
2018-07-22T20:54:12.606Z,5.23
2018-07-22T20:57:10.538Z,5.47
2018-07-22T21:00:08.534Z,5.57
2018-07-22T21:03:06.347Z,5.73
2018-07-22T21:06:04.169Z,5.20
2018-07-22T21:09:02.143Z,5.00
2018-07-22T21:13:16.542Z,5.37
2018-07-22T21:16:14.595Z,4.97
2018-07-22T21:19:12.427Z,5.17
2018-07-22T21:22:10.155Z,5.07
2018-07-22T21:25:07.854Z,4.70
2018-07-22T21:28:05.813Z,5.30
2018-07-22T21:31:03.906Z,5.47
2018-07-22T21:34:01.938Z,5.67
2018-07-22T21:36:59.780Z,6.07
2018-07-22T21:39:58.013Z,5.13
2018-07-22T21:42:56.071Z,5.30
2018-07-22T21:45:54.358Z,4.93
2018-07-22T21:48:52.421Z,5.57
2018-07-22T21:51:50.301Z,5.37
2018-07-22T21:54:48.277Z,5.77
2018-07-22T21:57:46.148Z,5.80
2018-07-22T22:00:52.096Z,5.10
2018-07-22T22:03:50.105Z,5.27
2018-07-22T22:06:47.127Z,5.43
2018-07-22T22:09:45.125Z,5.40
2018-07-22T22:12:42.972Z,5.63
2018-07-22T22:15:40.834Z,5.50
2018-07-22T22:18:38.828Z,5.23
2018-07-22T22:21:36.786Z,5.33
2018-07-22T22:24:34.781Z,5.77
2018-07-22T22:27:32.688Z,5.23
2018-07-22T22:30:30.502Z,5.10
2018-07-22T22:33:28.438Z,5.20
2018-07-22T22:36:26.635Z,5.80
2018-07-22T22:39:24.698Z,5.73
2018-07-22T22:42:22.535Z,5.60
2018-07-22T22:45:20.510Z,6.00
2018-07-22T22:48:18.444Z,5.97
2018-07-22T22:51:16.642Z,6.37
2018-07-22T22:54:14.414Z,6.03
2018-07-22T22:57:12.203Z,5.77
2018-07-22T23:00:10.232Z,6.03
2018-07-22T23:03:08.330Z,6.13
2018-07-22T23:06:06.269Z,6.10
2018-07-22T23:09:04.332Z,6.43
2018-07-22T23:12:02.234Z,5.60
2018-07-22T23:15:00.453Z,5.53
2018-07-22T23:17:58.494Z,6.30
2018-07-22T23:20:56.465Z,6.17
2018-07-22T23:23:54.542Z,5.93
2018-07-22T23:26:52.739Z,6.40
2018-07-22T23:29:50.684Z,6.13
2018-07-22T23:32:48.607Z,6.30
2018-07-22T23:35:45.929Z,6.17
2018-07-22T23:38:44.030Z,6.10
2018-07-22T23:41:41.248Z,6.60
2018-07-22T23:44:39.331Z,6.90
2018-07-22T23:47:37.114Z,6.87
2018-07-22T23:50:35.081Z,6.10
2018-07-22T23:53:32.178Z,6.47
2018-07-22T23:56:30.183Z,6.33
2018-07-22T23:59:27.438Z,6.53
